Hauptseite
METAR-TAF:

METAR-TAF

Flughäfen :

Leipzig-Altenburg Airport

Altenburg, Deutschland

Breite: 50-58N, Länge: 012-30E, Höhe: 195 m

Beobachtung

Neuester Wetterbericht von vor 13 Minuten, um 11:50 UTC
Wind 11 kt aus Nord/Nordwest
Temperatur 25°C
Luftfeuchtigkeit 44%
Luftdruck 1016 hPa
Sichtweite 10 km oder mehr
keine Wolken unter 1500 m und keine Kumulonimbus oder Gewitterwolken

METAR: EDAC 181150Z 33011KT CAVOK 25/12 Q1016

Zeit: 14:03 (12:03 UTC)

Prognose

Neuester Wetterbericht von vor 1 Stunde und 3 Minuten, um 11:00 UTC
Gültige Prognose vom 18 um 12 UTC bis 18 um 21 UTC
Wind 9 kt aus Nord/Nordwest
Sichtweite 10 km oder mehr
keine Wolken unter 1500 m und keine Kumulonimbus oder Gewitterwolken
Übergehend zu
vom 18 um 17 UTC bis 18 um 19 UTC
Wind 4 kt aus Nord/Nordwest

TAF: EDAC 181100Z 1812/1821 33009KT CAVOK BECMG 1817/1819 34004KT

Wetterbeobachtungen und Prognosen von mehr als 4000 Flughäfen (METAR und TAF Bericht).

Die verfügbaren Stationen werden durch gelbe und rote Markierungen auf der Karte dargestellt.

Führen Sie die Maus auf sie, um den Namen der Station zu sehen.

Darauf klicken, um die Beobachtung von Wetterbeobachtungen und Prognosen zu sehen.

Um die Karte zu ändern : klicken Sie auf den grünen Tasten mit einem schwarzen Kreuz Zum Vergrößern, auf den grünen Button mit einem Gedankenstrich zu verkleinern, oder auf die grünen Pfeile für benachbarte Karten.


METAR-TAF: